Terminal Aerodrome Forecast
Issued by NWS Caribou, ME

Home | Current Version | Previous Version | Text Only | Print | Product List | Glossary On
Versions: 1 2 3 4 5 6 7 8 9 10 11 12 13 14 15 16
000
FTUS41 KCAR 272009 AAB
TAFCAR
TAF AMD
KCAR 272009Z 2720/2818 34011KT P6SM OVC025
     FM272200 34007KT P6SM SCT030
     FM281500 33010KT P6SM BKN050=

USA.gov is the U.S. government's official web portal to all federal, state and local government web resources and services.